sensor_id;sensor_type;location;lat;lon;timestamp;P1;durP1;ratioP1;P2;durP2;ratioP2
5833;SDS011;2943;48.012;10.968;2023-11-22T10:32:32;10.20;;;8.20;;
5833;SDS011;2943;48.012;10.968;2023-11-22T10:34:59;9.23;;;6.77;;
5833;SDS011;2943;48.012;10.968;2023-11-22T10:37:26;14.57;;;9.83;;
5833;SDS011;2943;48.012;10.968;2023-11-22T10:39:53;13.30;;;9.30;;
5833;SDS011;2943;48.012;10.968;2023-11-22T10:42:21;14.00;;;8.80;;
5833;SDS011;2943;48.012;10.968;2023-11-22T10:44:49;7.55;;;6.55;;
5833;SDS011;2943;48.012;10.968;2023-11-22T10:47:16;8.30;;;6.10;;
5833;SDS011;2943;48.012;10.968;2023-11-22T10:49:44;6.07;;;5.43;;
5833;SDS011;2943;48.012;10.968;2023-11-22T10:52:11;6.50;;;5.80;;
5833;SDS011;2943;48.012;10.968;2023-11-22T10:54:40;7.57;;;6.07;;
5833;SDS011;2943;48.012;10.968;2023-11-22T10:57:14;7.00;;;6.30;;
5833;SDS011;2943;48.012;10.968;2023-11-22T10:59:45;6.57;;;5.60;;
5833;SDS011;2943;48.012;10.968;2023-11-22T11:02:19;7.50;;;6.60;;
5833;SDS011;2943;48.012;10.968;2023-11-22T11:04:51;7.13;;;6.40;;
5833;SDS011;2943;48.012;10.968;2023-11-22T11:07:22;6.27;;;5.67;;
5833;SDS011;2943;48.012;10.968;2023-11-22T11:09:52;8.00;;;6.80;;
5833;SDS011;2943;48.012;10.968;2023-11-22T11:12:20;7.20;;;6.47;;
5833;SDS011;2943;48.012;10.968;2023-11-22T11:14:49;8.23;;;6.80;;
5833;SDS011;2943;48.012;10.968;2023-11-22T11:17:16;10.00;;;8.17;;
5833;SDS011;2943;48.012;10.968;2023-11-22T11:19:43;8.37;;;7.23;;
5833;SDS011;2943;48.012;10.968;2023-11-22T11:22:10;8.20;;;7.23;;
5833;SDS011;2943;48.012;10.968;2023-11-22T11:24:38;7.60;;;6.80;;
5833;SDS011;2943;48.012;10.968;2023-11-22T11:27:06;7.53;;;6.60;;
5833;SDS011;2943;48.012;10.968;2023-11-22T11:29:33;8.50;;;7.60;;
5833;SDS011;2943;48.012;10.968;2023-11-22T11:32:03;9.83;;;7.50;;
5833;SDS011;2943;48.012;10.968;2023-11-22T11:34:31;9.60;;;8.30;;
5833;SDS011;2943;48.012;10.968;2023-11-22T11:36:58;8.23;;;7.30;;
5833;SDS011;2943;48.012;10.968;2023-11-22T11:39:26;7.37;;;6.40;;
5833;SDS011;2943;48.012;10.968;2023-11-22T11:42:08;7.90;;;7.00;;
5833;SDS011;2943;48.012;10.968;2023-11-22T11:44:35;7.47;;;6.70;;
5833;SDS011;2943;48.012;10.968;2023-11-22T11:47:10;6.80;;;6.10;;
5833;SDS011;2943;48.012;10.968;2023-11-22T11:49:37;8.53;;;7.60;;
5833;SDS011;2943;48.012;10.968;2023-11-22T11:52:04;7.57;;;6.50;;
5833;SDS011;2943;48.012;10.968;2023-11-22T11:54:32;7.40;;;6.73;;
5833;SDS011;2943;48.012;10.968;2023-11-22T11:56:59;10.20;;;7.10;;
5833;SDS011;2943;48.012;10.968;2023-11-22T11:59:26;6.93;;;6.27;;
5833;SDS011;2943;48.012;10.968;2023-11-22T12:01:55;7.03;;;6.20;;
5833;SDS011;2943;48.012;10.968;2023-11-22T12:04:24;6.80;;;6.10;;
5833;SDS011;2943;48.012;10.968;2023-11-22T12:06:51;8.27;;;7.40;;
5833;SDS011;2943;48.012;10.968;2023-11-22T12:09:22;7.73;;;6.80;;
5833;SDS011;2943;48.012;10.968;2023-11-22T12:11:50;7.23;;;6.53;;
5833;SDS011;2943;48.012;10.968;2023-11-22T12:14:18;7.90;;;6.77;;
5833;SDS011;2943;48.012;10.968;2023-11-22T12:16:45;8.50;;;7.63;;
5833;SDS011;2943;48.012;10.968;2023-11-22T12:19:20;7.37;;;6.60;;
5833;SDS011;2943;48.012;10.968;2023-11-22T12:21:49;7.63;;;6.93;;
5833;SDS011;2943;48.012;10.968;2023-11-22T12:24:16;7.63;;;6.90;;
5833;SDS011;2943;48.012;10.968;2023-11-22T12:26:44;10.50;;;9.40;;
5833;SDS011;2943;48.012;10.968;2023-11-22T12:29:11;10.50;;;8.57;;
5833;SDS011;2943;48.012;10.968;2023-11-22T12:31:43;13.83;;;10.80;;
5833;SDS011;2943;48.012;10.968;2023-11-22T12:34:11;10.77;;;8.83;;
5833;SDS011;2943;48.012;10.968;2023-11-22T12:36:39;11.40;;;9.13;;
5833;SDS011;2943;48.012;10.968;2023-11-22T12:39:08;10.87;;;9.03;;
5833;SDS011;2943;48.012;10.968;2023-11-22T12:41:41;9.53;;;8.53;;
5833;SDS011;2943;48.012;10.968;2023-11-22T12:44:11;9.13;;;8.23;;
5833;SDS011;2943;48.012;10.968;2023-11-22T12:46:44;10.10;;;9.07;;
5833;SDS011;2943;48.012;10.968;2023-11-22T12:49:14;10.80;;;9.20;;
5833;SDS011;2943;48.012;10.968;2023-11-22T12:51:45;10.30;;;9.13;;
5833;SDS011;2943;48.012;10.968;2023-11-22T12:54:14;37.38;;;9.30;;
5833;SDS011;2943;48.012;10.968;2023-11-22T12:56:41;17.23;;;11.07;;
5833;SDS011;2943;48.012;10.968;2023-11-22T12:59:08;12.83;;;9.23;;
5833;SDS011;2943;48.012;10.968;2023-11-22T13:01:37;7.73;;;6.93;;
5833;SDS011;2943;48.012;10.968;2023-11-22T13:04:04;12.00;;;8.07;;
5833;SDS011;2943;48.012;10.968;2023-11-22T13:06:32;11.13;;;7.07;;
5833;SDS011;2943;48.012;10.968;2023-11-22T13:08:58;7.80;;;6.57;;
5833;SDS011;2943;48.012;10.968;2023-11-22T13:11:26;15.30;;;6.17;;
5833;SDS011;2943;48.012;10.968;2023-11-22T13:13:53;11.67;;;6.20;;
5833;SDS011;2943;48.012;10.968;2023-11-22T13:16:21;6.57;;;5.97;;
5833;SDS011;2943;48.012;10.968;2023-11-22T13:18:47;9.43;;;6.10;;
5833;SDS011;2943;48.012;10.968;2023-11-22T13:21:15;7.00;;;6.20;;
5833;SDS011;2943;48.012;10.968;2023-11-22T13:23:41;10.67;;;5.90;;
5833;SDS011;2943;48.012;10.968;2023-11-22T13:26:08;10.90;;;7.23;;
5833;SDS011;2943;48.012;10.968;2023-11-22T13:28:39;12.50;;;7.30;;
5833;SDS011;2943;48.012;10.968;2023-11-22T13:31:07;10.73;;;6.00;;
5833;SDS011;2943;48.012;10.968;2023-11-22T13:33:34;7.30;;;5.30;;
5833;SDS011;2943;48.012;10.968;2023-11-22T13:36:01;6.83;;;5.77;;
5833;SDS011;2943;48.012;10.968;2023-11-22T13:38:28;9.30;;;5.83;;
5833;SDS011;2943;48.012;10.968;2023-11-22T13:40:55;9.57;;;7.00;;
5833;SDS011;2943;48.012;10.968;2023-11-22T13:43:22;7.93;;;6.60;;
5833;SDS011;2943;48.012;10.968;2023-11-22T13:45:52;6.43;;;5.80;;
5833;SDS011;2943;48.012;10.968;2023-11-22T13:48:18;6.50;;;5.90;;
5833;SDS011;2943;48.012;10.968;2023-11-22T13:50:48;6.77;;;6.17;;
5833;SDS011;2943;48.012;10.968;2023-11-22T13:53:15;7.73;;;6.93;;
5833;SDS011;2943;48.012;10.968;2023-11-22T13:55:46;7.10;;;6.40;;
5833;SDS011;2943;48.012;10.968;2023-11-22T13:58:13;7.87;;;7.07;;
5833;SDS011;2943;48.012;10.968;2023-11-22T14:00:39;9.37;;;7.50;;
5833;SDS011;2943;48.012;10.968;2023-11-22T14:03:08;7.73;;;6.90;;
5833;SDS011;2943;48.012;10.968;2023-11-22T14:05:36;9.00;;;7.50;;
5833;SDS011;2943;48.012;10.968;2023-11-22T14:08:03;7.73;;;6.93;;
5833;SDS011;2943;48.012;10.968;2023-11-22T14:10:32;7.13;;;6.10;;
5833;SDS011;2943;48.012;10.968;2023-11-22T14:12:58;7.40;;;6.50;;
5833;SDS011;2943;48.012;10.968;2023-11-22T14:15:26;7.33;;;6.17;;
5833;SDS011;2943;48.012;10.968;2023-11-22T14:17:53;7.37;;;5.83;;
5833;SDS011;2943;48.012;10.968;2023-11-22T14:20:22;7.17;;;6.47;;
5833;SDS011;2943;48.012;10.968;2023-11-22T14:22:49;7.17;;;6.30;;
5833;SDS011;2943;48.012;10.968;2023-11-22T14:25:16;13.43;;;7.70;;
5833;SDS011;2943;48.012;10.968;2023-11-22T14:27:43;8.53;;;7.63;;
5833;SDS011;2943;48.012;10.968;2023-11-22T14:30:11;10.60;;;8.80;;
5833;SDS011;2943;48.012;10.968;2023-11-22T14:32:42;9.80;;;8.60;;
5833;SDS011;2943;48.012;10.968;2023-11-22T14:35:09;9.30;;;7.47;;
5833;SDS011;2943;48.012;10.968;2023-11-22T14:37:38;11.93;;;8.80;;
5833;SDS011;2943;48.012;10.968;2023-11-22T14:40:06;19.90;;;8.47;;
5833;SDS011;2943;48.012;10.968;2023-11-22T14:42:38;10.60;;;8.80;;
5833;SDS011;2943;48.012;10.968;2023-11-22T14:45:06;9.90;;;8.10;;
5833;SDS011;2943;48.012;10.968;2023-11-22T14:47:34;13.33;;;9.20;;
5833;SDS011;2943;48.012;10.968;2023-11-22T14:50:01;9.23;;;7.87;;
5833;SDS011;2943;48.012;10.968;2023-11-22T14:52:30;10.10;;;8.90;;
5833;SDS011;2943;48.012;10.968;2023-11-22T14:54:58;11.33;;;9.20;;
5833;SDS011;2943;48.012;10.968;2023-11-22T14:57:25;11.10;;;8.57;;
5833;SDS011;2943;48.012;10.968;2023-11-22T14:59:52;12.47;;;9.10;;
5833;SDS011;2943;48.012;10.968;2023-11-22T15:02:19;11.57;;;9.23;;
5833;SDS011;2943;48.012;10.968;2023-11-22T15:04:46;13.27;;;8.70;;
5833;SDS011;2943;48.012;10.968;2023-11-22T15:07:13;11.40;;;8.83;;
5833;SDS011;2943;48.012;10.968;2023-11-22T15:09:40;9.50;;;8.03;;
5833;SDS011;2943;48.012;10.968;2023-11-22T15:12:08;12.00;;;8.83;;
5833;SDS011;2943;48.012;10.968;2023-11-22T15:14:35;10.13;;;8.20;;
5833;SDS011;2943;48.012;10.968;2023-11-22T15:17:02;13.03;;;8.60;;
5833;SDS011;2943;48.012;10.968;2023-11-22T15:19:29;10.70;;;8.10;;
5833;SDS011;2943;48.012;10.968;2023-11-22T15:21:56;12.13;;;10.13;;
5833;SDS011;2943;48.012;10.968;2023-11-22T15:24:23;10.97;;;8.93;;
5833;SDS011;2943;48.012;10.968;2023-11-22T15:26:51;11.43;;;9.97;;
5833;SDS011;2943;48.012;10.968;2023-11-22T15:29:19;13.50;;;10.57;;
5833;SDS011;2943;48.012;10.968;2023-11-22T15:31:46;11.20;;;9.87;;
5833;SDS011;2943;48.012;10.968;2023-11-22T15:34:12;13.50;;;10.27;;
5833;SDS011;2943;48.012;10.968;2023-11-22T15:36:39;14.20;;;10.53;;
5833;SDS011;2943;48.012;10.968;2023-11-22T15:39:06;14.67;;;11.10;;
5833;SDS011;2943;48.012;10.968;2023-11-22T15:41:36;14.23;;;11.17;;
5833;SDS011;2943;48.012;10.968;2023-11-22T15:44:04;13.70;;;10.07;;
5833;SDS011;2943;48.012;10.968;2023-11-22T15:46:32;16.77;;;11.50;;
5833;SDS011;2943;48.012;10.968;2023-11-22T15:48:59;18.03;;;11.47;;
5833;SDS011;2943;48.012;10.968;2023-11-22T15:51:26;15.60;;;11.37;;
5833;SDS011;2943;48.012;10.968;2023-11-22T15:53:52;14.60;;;10.90;;
5833;SDS011;2943;48.012;10.968;2023-11-22T15:56:19;15.93;;;10.67;;
5833;SDS011;2943;48.012;10.968;2023-11-22T15:58:46;13.73;;;11.03;;
5833;SDS011;2943;48.012;10.968;2023-11-22T16:01:14;14.60;;;10.83;;
5833;SDS011;2943;48.012;10.968;2023-11-22T16:03:43;13.50;;;10.10;;
5833;SDS011;2943;48.012;10.968;2023-11-22T16:06:10;13.87;;;10.10;;
5833;SDS011;2943;48.012;10.968;2023-11-22T16:08:38;15.23;;;9.90;;
5833;SDS011;2943;48.012;10.968;2023-11-22T16:11:06;14.27;;;11.00;;
5833;SDS011;2943;48.012;10.968;2023-11-22T16:13:34;14.97;;;10.90;;
5833;SDS011;2943;48.012;10.968;2023-11-22T16:16:00;13.60;;;11.07;;
5833;SDS011;2943;48.012;10.968;2023-11-22T16:18:27;14.30;;;10.77;;
5833;SDS011;2943;48.012;10.968;2023-11-22T16:20:56;16.87;;;12.80;;
5833;SDS011;2943;48.012;10.968;2023-11-22T16:23:23;17.53;;;11.90;;
5833;SDS011;2943;48.012;10.968;2023-11-22T16:25:50;18.80;;;12.30;;
5833;SDS011;2943;48.012;10.968;2023-11-22T16:28:17;17.13;;;12.97;;
5833;SDS011;2943;48.012;10.968;2023-11-22T16:30:44;19.17;;;12.90;;
5833;SDS011;2943;48.012;10.968;2023-11-22T16:33:11;18.23;;;12.40;;
5833;SDS011;2943;48.012;10.968;2023-11-22T16:35:38;20.60;;;13.80;;
5833;SDS011;2943;48.012;10.968;2023-11-22T16:38:07;19.20;;;12.60;;
5833;SDS011;2943;48.012;10.968;2023-11-22T16:40:33;25.43;;;13.67;;
5833;SDS011;2943;48.012;10.968;2023-11-22T16:43:01;20.10;;;13.37;;
5833;SDS011;2943;48.012;10.968;2023-11-22T16:45:29;20.00;;;13.90;;
5833;SDS011;2943;48.012;10.968;2023-11-22T16:47:56;19.17;;;12.60;;
5833;SDS011;2943;48.012;10.968;2023-11-22T16:50:23;20.93;;;13.63;;
5833;SDS011;2943;48.012;10.968;2023-11-22T16:52:50;21.77;;;13.73;;
5833;SDS011;2943;48.012;10.968;2023-11-22T16:55:18;21.30;;;12.23;;
5833;SDS011;2943;48.012;10.968;2023-11-22T16:57:45;19.50;;;13.47;;
5833;SDS011;2943;48.012;10.968;2023-11-22T17:00:12;19.97;;;13.10;;
5833;SDS011;2943;48.012;10.968;2023-11-22T17:02:42;22.70;;;12.17;;
5833;SDS011;2943;48.012;10.968;2023-11-22T17:05:09;17.33;;;12.13;;
5833;SDS011;2943;48.012;10.968;2023-11-22T17:07:36;23.70;;;13.13;;
5833;SDS011;2943;48.012;10.968;2023-11-22T17:10:03;21.60;;;12.63;;
5833;SDS011;2943;48.012;10.968;2023-11-22T17:12:31;22.53;;;13.13;;
5833;SDS011;2943;48.012;10.968;2023-11-22T17:14:58;18.90;;;12.77;;
5833;SDS011;2943;48.012;10.968;2023-11-22T17:17:25;18.23;;;12.90;;
5833;SDS011;2943;48.012;10.968;2023-11-22T17:19:53;19.87;;;14.13;;
5833;SDS011;2943;48.012;10.968;2023-11-22T17:22:20;21.67;;;13.60;;
5833;SDS011;2943;48.012;10.968;2023-11-22T17:24:46;21.00;;;13.27;;
5833;SDS011;2943;48.012;10.968;2023-11-22T17:27:14;21.77;;;13.40;;
5833;SDS011;2943;48.012;10.968;2023-11-22T17:29:42;24.83;;;16.43;;
5833;SDS011;2943;48.012;10.968;2023-11-22T17:32:08;75.30;;;40.97;;
5833;SDS011;2943;48.012;10.968;2023-11-22T17:34:36;104.77;;;45.40;;
5833;SDS011;2943;48.012;10.968;2023-11-22T17:37:03;30.53;;;16.50;;
5833;SDS011;2943;48.012;10.968;2023-11-22T17:39:30;25.37;;;15.93;;
5833;SDS011;2943;48.012;10.968;2023-11-22T17:41:56;19.60;;;13.47;;
5833;SDS011;2943;48.012;10.968;2023-11-22T17:44:23;23.23;;;13.93;;
5833;SDS011;2943;48.012;10.968;2023-11-22T17:46:52;22.33;;;14.00;;
5833;SDS011;2943;48.012;10.968;2023-11-22T17:49:18;23.27;;;15.20;;
5833;SDS011;2943;48.012;10.968;2023-11-22T17:51:47;23.27;;;14.60;;
5833;SDS011;2943;48.012;10.968;2023-11-22T17:54:19;24.10;;;14.83;;
5833;SDS011;2943;48.012;10.968;2023-11-22T17:56:46;22.80;;;13.50;;
5833;SDS011;2943;48.012;10.968;2023-11-22T17:59:13;16.77;;;11.97;;
5833;SDS011;2943;48.012;10.968;2023-11-22T18:01:40;24.10;;;14.37;;
5833;SDS011;2943;48.012;10.968;2023-11-22T18:04:08;19.70;;;12.60;;
5833;SDS011;2943;48.012;10.968;2023-11-22T18:06:36;24.57;;;13.40;;
5833;SDS011;2943;48.012;10.968;2023-11-22T18:09:03;23.33;;;14.20;;
5833;SDS011;2943;48.012;10.968;2023-11-22T18:11:30;16.83;;;11.90;;
5833;SDS011;2943;48.012;10.968;2023-11-22T18:13:56;22.70;;;13.37;;
5833;SDS011;2943;48.012;10.968;2023-11-22T18:16:26;17.10;;;11.60;;
5833;SDS011;2943;48.012;10.968;2023-11-22T18:18:53;19.90;;;10.90;;
5833;SDS011;2943;48.012;10.968;2023-11-22T18:21:21;16.93;;;11.70;;
5833;SDS011;2943;48.012;10.968;2023-11-22T18:23:48;15.67;;;11.37;;
5833;SDS011;2943;48.012;10.968;2023-11-22T18:26:15;16.23;;;12.10;;
5833;SDS011;2943;48.012;10.968;2023-11-22T18:28:41;18.50;;;11.30;;
5833;SDS011;2943;48.012;10.968;2023-11-22T18:31:08;23.90;;;15.80;;
5833;SDS011;2943;48.012;10.968;2023-11-22T18:33:36;18.70;;;12.20;;
5833;SDS011;2943;48.012;10.968;2023-11-22T18:36:03;32.73;;;21.57;;
5833;SDS011;2943;48.012;10.968;2023-11-22T18:38:31;31.60;;;21.07;;
5833;SDS011;2943;48.012;10.968;2023-11-22T18:40:58;21.00;;;14.83;;
5833;SDS011;2943;48.012;10.968;2023-11-22T18:43:28;27.67;;;16.23;;
5833;SDS011;2943;48.012;10.968;2023-11-22T18:45:55;31.00;;;20.60;;
5833;SDS011;2943;48.012;10.968;2023-11-22T18:48:28;48.63;;;32.03;;
5833;SDS011;2943;48.012;10.968;2023-11-22T18:50:55;27.27;;;16.90;;
5833;SDS011;2943;48.012;10.968;2023-11-22T18:53:22;23.73;;;15.27;;
5833;SDS011;2943;48.012;10.968;2023-11-22T18:55:50;25.20;;;13.30;;
5833;SDS011;2943;48.012;10.968;2023-11-22T18:58:17;26.10;;;17.67;;
5833;SDS011;2943;48.012;10.968;2023-11-22T19:00:44;22.80;;;17.30;;
5833;SDS011;2943;48.012;10.968;2023-11-22T19:03:11;20.63;;;14.20;;
5833;SDS011;2943;48.012;10.968;2023-11-22T19:05:38;20.77;;;14.40;;
5833;SDS011;2943;48.012;10.968;2023-11-22T19:08:05;21.40;;;14.67;;
5833;SDS011;2943;48.012;10.968;2023-11-22T19:10:32;19.40;;;14.70;;
5833;SDS011;2943;48.012;10.968;2023-11-22T19:13:00;21.20;;;12.20;;
5833;SDS011;2943;48.012;10.968;2023-11-22T19:15:27;71.03;;;34.50;;
5833;SDS011;2943;48.012;10.968;2023-11-22T19:17:53;30.43;;;16.67;;
5833;SDS011;2943;48.012;10.968;2023-11-22T19:20:20;23.23;;;15.60;;
5833;SDS011;2943;48.012;10.968;2023-11-22T19:22:52;20.60;;;14.10;;
5833;SDS011;2943;48.012;10.968;2023-11-22T19:25:19;19.27;;;12.83;;
5833;SDS011;2943;48.012;10.968;2023-11-22T19:27:46;20.97;;;13.63;;
5833;SDS011;2943;48.012;10.968;2023-11-22T19:30:15;24.20;;;14.03;;
5833;SDS011;2943;48.012;10.968;2023-11-22T19:32:42;21.90;;;14.67;;
5833;SDS011;2943;48.012;10.968;2023-11-22T19:35:10;22.40;;;15.73;;
5833;SDS011;2943;48.012;10.968;2023-11-22T19:37:37;21.20;;;14.80;;
5833;SDS011;2943;48.012;10.968;2023-11-22T19:40:04;21.17;;;14.17;;
5833;SDS011;2943;48.012;10.968;2023-11-22T19:42:32;22.50;;;14.47;;
5833;SDS011;2943;48.012;10.968;2023-11-22T19:44:59;32.03;;;20.27;;
5833;SDS011;2943;48.012;10.968;2023-11-22T19:47:28;31.07;;;21.30;;
5833;SDS011;2943;48.012;10.968;2023-11-22T19:49:54;50.57;;;33.37;;
5833;SDS011;2943;48.012;10.968;2023-11-22T19:52:21;26.87;;;17.30;;
5833;SDS011;2943;48.012;10.968;2023-11-22T19:54:49;23.93;;;14.57;;
5833;SDS011;2943;48.012;10.968;2023-11-22T19:57:15;23.13;;;14.83;;
5833;SDS011;2943;48.012;10.968;2023-11-22T19:59:42;24.23;;;13.73;;
5833;SDS011;2943;48.012;10.968;2023-11-22T20:02:09;22.57;;;13.87;;
5833;SDS011;2943;48.012;10.968;2023-11-22T20:04:38;27.43;;;16.60;;
5833;SDS011;2943;48.012;10.968;2023-11-22T20:07:06;24.13;;;15.40;;
5833;SDS011;2943;48.012;10.968;2023-11-22T20:09:35;23.93;;;15.80;;
5833;SDS011;2943;48.012;10.968;2023-11-22T20:12:02;25.70;;;15.37;;
5833;SDS011;2943;48.012;10.968;2023-11-22T20:14:30;23.33;;;15.40;;
5833;SDS011;2943;48.012;10.968;2023-11-22T20:16:57;25.40;;;15.97;;
5833;SDS011;2943;48.012;10.968;2023-11-22T20:19:24;29.90;;;14.47;;
5833;SDS011;2943;48.012;10.968;2023-11-22T20:21:52;25.83;;;14.40;;
5833;SDS011;2943;48.012;10.968;2023-11-22T20:24:18;28.77;;;15.40;;
5833;SDS011;2943;48.012;10.968;2023-11-22T20:26:45;23.10;;;15.33;;
5833;SDS011;2943;48.012;10.968;2023-11-22T20:29:13;24.50;;;15.63;;
5833;SDS011;2943;48.012;10.968;2023-11-22T20:31:40;21.57;;;13.87;;
5833;SDS011;2943;48.012;10.968;2023-11-22T20:34:07;30.90;;;15.43;;
5833;SDS011;2943;48.012;10.968;2023-11-22T20:36:33;26.50;;;14.73;;
5833;SDS011;2943;48.012;10.968;2023-11-22T20:39:03;25.43;;;16.67;;
5833;SDS011;2943;48.012;10.968;2023-11-22T20:41:30;27.40;;;15.57;;
5833;SDS011;2943;48.012;10.968;2023-11-22T20:43:57;25.00;;;15.07;;
5833;SDS011;2943;48.012;10.968;2023-11-22T20:46:24;23.80;;;14.73;;
5833;SDS011;2943;48.012;10.968;2023-11-22T20:48:51;22.03;;;13.73;;
5833;SDS011;2943;48.012;10.968;2023-11-22T20:51:19;26.30;;;16.87;;
5833;SDS011;2943;48.012;10.968;2023-11-22T20:53:46;23.50;;;15.30;;
5833;SDS011;2943;48.012;10.968;2023-11-22T20:56:14;26.83;;;15.97;;
5833;SDS011;2943;48.012;10.968;2023-11-22T20:58:41;27.50;;;15.10;;
5833;SDS011;2943;48.012;10.968;2023-11-22T21:01:07;29.13;;;16.53;;
5833;SDS011;2943;48.012;10.968;2023-11-22T21:03:34;22.83;;;13.90;;
5833;SDS011;2943;48.012;10.968;2023-11-22T21:06:01;24.87;;;14.67;;
5833;SDS011;2943;48.012;10.968;2023-11-22T21:08:28;23.87;;;15.70;;
5833;SDS011;2943;48.012;10.968;2023-11-22T21:10:54;23.10;;;14.80;;
5833;SDS011;2943;48.012;10.968;2023-11-22T21:13:22;25.30;;;15.47;;
5833;SDS011;2943;48.012;10.968;2023-11-22T21:15:49;27.80;;;16.13;;
5833;SDS011;2943;48.012;10.968;2023-11-22T21:18:16;25.20;;;15.53;;
5833;SDS011;2943;48.012;10.968;2023-11-22T21:20:43;25.80;;;15.07;;
5833;SDS011;2943;48.012;10.968;2023-11-22T21:23:11;26.93;;;16.37;;
5833;SDS011;2943;48.012;10.968;2023-11-22T21:25:38;23.90;;;14.67;;
5833;SDS011;2943;48.012;10.968;2023-11-22T21:28:04;22.93;;;14.57;;
5833;SDS011;2943;48.012;10.968;2023-11-22T21:30:33;25.70;;;16.17;;
5833;SDS011;2943;48.012;10.968;2023-11-22T21:32:59;26.43;;;15.80;;
5833;SDS011;2943;48.012;10.968;2023-11-22T21:35:26;21.87;;;15.30;;
5833;SDS011;2943;48.012;10.968;2023-11-22T21:37:54;28.10;;;16.67;;
5833;SDS011;2943;48.012;10.968;2023-11-22T21:40:21;27.53;;;16.73;;
5833;SDS011;2943;48.012;10.968;2023-11-22T21:42:48;27.83;;;15.50;;
5833;SDS011;2943;48.012;10.968;2023-11-22T21:45:15;22.70;;;14.43;;
5833;SDS011;2943;48.012;10.968;2023-11-22T21:47:43;20.80;;;14.23;;
5833;SDS011;2943;48.012;10.968;2023-11-22T21:50:10;25.57;;;14.77;;
5833;SDS011;2943;48.012;10.968;2023-11-22T21:52:38;24.07;;;14.90;;
5833;SDS011;2943;48.012;10.968;2023-11-22T21:55:05;27.10;;;16.23;;
5833;SDS011;2943;48.012;10.968;2023-11-22T21:57:34;26.43;;;15.60;;
5833;SDS011;2943;48.012;10.968;2023-11-22T22:00:01;27.80;;;16.57;;
5833;SDS011;2943;48.012;10.968;2023-11-22T22:02:29;30.13;;;15.90;;
5833;SDS011;2943;48.012;10.968;2023-11-22T22:04:58;29.70;;;17.50;;
5833;SDS011;2943;48.012;10.968;2023-11-22T22:07:24;27.20;;;16.27;;
5833;SDS011;2943;48.012;10.968;2023-11-22T22:09:51;32.50;;;17.67;;
5833;SDS011;2943;48.012;10.968;2023-11-22T22:12:19;36.97;;;20.90;;
5833;SDS011;2943;48.012;10.968;2023-11-22T22:14:46;30.20;;;17.10;;
5833;SDS011;2943;48.012;10.968;2023-11-22T22:17:12;30.43;;;18.97;;
5833;SDS011;2943;48.012;10.968;2023-11-22T22:19:39;37.07;;;18.20;;
5833;SDS011;2943;48.012;10.968;2023-11-22T22:22:07;30.80;;;18.17;;
5833;SDS011;2943;48.012;10.968;2023-11-22T22:24:34;36.73;;;19.93;;
5833;SDS011;2943;48.012;10.968;2023-11-22T22:27:01;35.20;;;19.43;;
5833;SDS011;2943;48.012;10.968;2023-11-22T22:29:28;33.70;;;20.13;;
5833;SDS011;2943;48.012;10.968;2023-11-22T22:31:54;34.73;;;20.37;;
5833;SDS011;2943;48.012;10.968;2023-11-22T22:34:21;34.77;;;19.30;;
5833;SDS011;2943;48.012;10.968;2023-11-22T22:36:48;29.40;;;18.70;;
5833;SDS011;2943;48.012;10.968;2023-11-22T22:39:16;30.30;;;19.23;;
5833;SDS011;2943;48.012;10.968;2023-11-22T22:41:43;34.90;;;19.50;;
5833;SDS011;2943;48.012;10.968;2023-11-22T22:44:09;35.67;;;20.10;;
5833;SDS011;2943;48.012;10.968;2023-11-22T22:46:38;31.70;;;18.57;;
5833;SDS011;2943;48.012;10.968;2023-11-22T22:49:05;32.93;;;19.10;;
5833;SDS011;2943;48.012;10.968;2023-11-22T22:51:32;36.00;;;19.60;;
5833;SDS011;2943;48.012;10.968;2023-11-22T22:53:59;32.57;;;18.33;;
5833;SDS011;2943;48.012;10.968;2023-11-22T22:56:27;36.00;;;20.10;;
5833;SDS011;2943;48.012;10.968;2023-11-22T22:58:53;37.27;;;20.27;;
5833;SDS011;2943;48.012;10.968;2023-11-22T23:01:20;35.67;;;20.77;;
5833;SDS011;2943;48.012;10.968;2023-11-22T23:03:47;40.37;;;21.13;;
5833;SDS011;2943;48.012;10.968;2023-11-22T23:06:20;38.90;;;21.70;;
5833;SDS011;2943;48.012;10.968;2023-11-22T23:08:47;42.37;;;20.40;;
5833;SDS011;2943;48.012;10.968;2023-11-22T23:11:16;39.77;;;22.27;;
5833;SDS011;2943;48.012;10.968;2023-11-22T23:13:45;35.10;;;20.13;;
5833;SDS011;2943;48.012;10.968;2023-11-22T23:16:12;37.27;;;20.90;;
5833;SDS011;2943;48.012;10.968;2023-11-22T23:18:38;39.23;;;20.20;;
5833;SDS011;2943;48.012;10.968;2023-11-22T23:21:06;35.43;;;21.07;;
5833;SDS011;2943;48.012;10.968;2023-11-22T23:23:33;35.77;;;19.87;;
5833;SDS011;2943;48.012;10.968;2023-11-22T23:26:00;39.10;;;21.60;;
5833;SDS011;2943;48.012;10.968;2023-11-22T23:28:28;36.40;;;21.03;;
5833;SDS011;2943;48.012;10.968;2023-11-22T23:30:56;34.00;;;21.87;;
5833;SDS011;2943;48.012;10.968;2023-11-22T23:33:23;39.00;;;22.00;;
5833;SDS011;2943;48.012;10.968;2023-11-22T23:35:50;44.50;;;20.93;;
5833;SDS011;2943;48.012;10.968;2023-11-22T23:38:17;39.20;;;22.17;;
5833;SDS011;2943;48.012;10.968;2023-11-22T23:40:46;39.87;;;22.07;;
5833;SDS011;2943;48.012;10.968;2023-11-22T23:43:13;39.10;;;21.40;;
5833;SDS011;2943;48.012;10.968;2023-11-22T23:45:40;38.10;;;21.57;;
5833;SDS011;2943;48.012;10.968;2023-11-22T23:48:09;41.17;;;21.10;;
5833;SDS011;2943;48.012;10.968;2023-11-22T23:50:38;35.13;;;19.37;;
5833;SDS011;2943;48.012;10.968;2023-11-22T23:53:05;38.93;;;21.07;;
5833;SDS011;2943;48.012;10.968;2023-11-22T23:55:32;38.57;;;20.90;;
5833;SDS011;2943;48.012;10.968;2023-11-22T23:57:59;41.70;;;21.47;;
